Time;durP1;ratioP1;P1;durP2;ratioP2;P2;SDS_P1;SDS_P2;PMS_P1;PMS_P2;Temp;Humidity;BMP_temperature;BMP_pressure;BME280_temperature;BME280_humidity;BME280_pressure;Samples;Min_cycle;Max_cycle;Signal;HPM_P1;HPM_P2
2021/08/22 02:59:30;;;;;;;23.45;9.20;;;;;;;16.63;72.21;99134.25;4836413;29;20152;-90
2021/08/22 03:01:56;;;;;;;22.00;8.90;;;;;;;16.55;72.09;99119.44;4824735;29;20419;-90
2021/08/22 03:04:22;;;;;;;19.73;9.82;;;;;;;16.65;72.29;99132.72;4825632;29;20037;-91
2021/08/22 03:06:48;;;;;;;25.33;9.50;;;;;;;16.70;71.79;99137.16;4825352;29;20033;-95
2021/08/22 03:09:13;;;;;;;16.58;9.10;;;;;;;16.47;72.03;99105.88;4840422;29;20057;-91
2021/08/22 03:11:40;;;;;;;24.08;9.73;;;;;;;16.56;71.97;99123.84;4840850;29;20049;-90
2021/08/22 03:14:06;;;;;;;20.70;10.48;;;;;;;16.76;71.80;99134.97;4811479;29;20129;-90
2021/08/22 03:16:33;;;;;;;20.17;9.65;;;;;;;16.79;72.01;99139.78;4823163;29;20503;-90
2021/08/22 03:18:59;;;;;;;21.05;10.52;;;;;;;16.65;71.91;99118.09;4840539;29;20140;-91
2021/08/22 03:21:25;;;;;;;20.30;10.27;;;;;;;16.88;71.99;99143.91;4840760;29;20535;-95
2021/08/22 03:23:51;;;;;;;19.30;10.45;;;;;;;16.90;72.02;99144.38;4825686;29;20050;-87
2021/08/22 03:26:20;;;;;;;16.58;9.65;;;;;;;16.77;71.93;99131.84;4853821;29;20097;-91
2021/08/22 03:28:46;;;;;;;17.25;9.80;;;;;;;16.83;71.84;99138.69;4830511;29;20049;-91
2021/08/22 03:31:11;;;;;;;18.10;9.18;;;;;;;16.85;71.71;99143.84;4841295;29;20049;-96
2021/08/22 03:33:37;;;;;;;16.70;9.05;;;;;;;16.82;71.93;99150.06;4842191;29;20042;-92
2021/08/22 03:36:04;;;;;;;16.13;8.80;;;;;;;16.75;71.90;99158.19;4826277;29;20554;-96
2021/08/22 03:38:30;;;;;;;14.55;8.02;;;;;;;16.72;71.93;99151.44;4841013;29;20049;-93
2021/08/22 03:40:56;;;;;;;17.58;9.20;;;;;;;16.65;71.74;99141.00;4826534;29;20046;-96
2021/08/22 03:43:22;;;;;;;18.63;9.43;;;;;;;16.63;71.87;99132.28;4842697;29;20101;-93
2021/08/22 03:45:49;;;;;;;17.38;8.73;;;;;;;16.68;72.15;99140.28;4822553;29;20133;-91
2021/08/22 03:48:14;;;;;;;22.20;9.40;;;;;;;16.63;71.52;99137.81;4822498;29;20141;-89
2021/08/22 03:50:40;;;;;;;13.10;8.18;;;;;;;16.72;71.27;99164.41;4824393;29;20457;-90
2021/08/22 03:53:06;;;;;;;19.35;8.57;;;;;;;16.80;71.18;99168.97;4806823;29;20047;-88
2021/08/22 03:55:32;;;;;;;14.02;8.70;;;;;;;16.62;71.52;99147.25;4823077;29;20102;-86
2021/08/22 03:57:58;;;;;;;17.35;8.80;;;;;;;16.58;71.41;99131.75;4821890;29;20054;-89
2021/08/22 04:00:24;;;;;;;15.67;8.37;;;;;;;16.90;71.35;99176.72;4806627;29;20130;-89
2021/08/22 04:02:50;;;;;;;23.05;8.77;;;;;;;16.91;70.70;99175.53;4821986;29;20046;-87
2021/08/22 04:05:34;;;;;;;22.05;8.35;;;;;;;17.17;70.05;99193.50;4820452;29;20423;-92
2021/08/22 04:08:02;;;;;;;14.35;8.02;;;;;;;17.09;70.47;99185.06;4844827;29;20512;-90
2021/08/22 04:10:28;;;;;;;17.35;7.20;;;;;;;17.11;70.42;99181.91;4828745;29;20106;-91
2021/08/22 04:12:56;;;;;;;13.32;7.43;;;;;;;16.97;70.42;99163.06;4844911;29;20045;-94
2021/08/22 04:15:24;;;;;;;16.05;7.28;;;;;;;17.14;70.41;99183.97;4830652;29;20436;-95
2021/08/22 04:17:51;;;;;;;14.40;8.02;;;;;;;16.91;70.69;99153.44;4839980;29;20469;-89
2021/08/22 04:20:17;;;;;;;29.38;8.43;;;;;;;17.09;70.50;99174.00;4826049;29;20042;-88
2021/08/22 04:22:43;;;;;;;14.52;7.10;;;;;;;16.95;71.02;99157.09;4826005;29;20076;-92
2021/08/22 04:25:11;;;;;;;15.07;8.35;;;;;;;16.73;71.34;99128.19;4842298;29;20045;-90
2021/08/22 04:27:39;;;;;;;16.33;7.97;;;;;;;16.93;71.36;99166.91;4844041;29;20048;-87
2021/08/22 04:30:06;;;;;;;12.45;8.27;;;;;;;17.31;70.88;99182.75;4827311;29;20556;-87
2021/08/22 04:32:32;;;;;;;;;;;;;;;17.51;69.83;99189.91;4843032;29;20050;-88
2021/08/22 04:34:58;;;;;;;15.17;8.73;;;;;;;17.50;68.77;99137.78;4827747;29;19953;-89
2021/08/22 04:37:24;;;;;;;13.03;8.00;;;;;;;17.66;68.97;99168.09;4843981;29;20080;-87
2021/08/22 04:39:50;;;;;;;26.92;8.48;;;;;;;17.66;68.94;99165.34;4844016;29;20053;-88
2021/08/22 04:42:16;;;;;;;17.88;8.30;;;;;;;17.69;68.60;99175.69;4844220;29;20428;-86
2021/08/22 04:44:41;;;;;;;15.90;8.18;;;;;;;17.61;68.84;99175.53;4844081;29;20086;-89
2021/08/22 04:47:08;;;;;;;17.02;8.55;;;;;;;17.51;69.62;99195.44;4843249;29;20468;-94
2021/08/22 04:49:34;;;;;;;26.83;9.20;;;;;;;17.67;70.19;99200.91;4843100;29;20050;-90
2021/08/22 04:52:00;;;;;;;12.85;8.20;;;;;;;17.74;69.13;99191.97;4844198;29;20081;-89
2021/08/22 04:54:26;;;;;;;14.10;8.67;;;;;;;17.81;69.16;99187.41;4843071;29;20129;-89
2021/08/22 04:56:52;;;;;;;22.50;8.13;;;;;;;17.97;68.76;99201.13;4827626;29;20038;-88
2021/08/22 04:59:18;;;;;;;15.73;8.00;;;;;;;17.90;68.79;99203.78;4843318;29;20077;-92
2021/08/22 05:01:44;;;;;;;14.45;7.78;;;;;;;17.90;68.40;99214.03;4842714;29;20465;-91
2021/08/22 05:04:10;;;;;;;26.13;8.98;;;;;;;17.87;68.99;99210.03;4843093;29;20061;-90
2021/08/22 05:06:36;;;;;;;16.13;8.05;;;;;;;17.70;68.76;99175.31;4842869;29;20038;-93
2021/08/22 05:09:02;;;;;;;19.00;8.57;;;;;;;17.71;69.53;99200.97;4827544;29;20647;-90
2021/08/22 05:11:29;;;;;;;;;;;;;;;17.94;69.07;99232.28;4844046;29;20063;-87
2021/08/22 05:13:55;;;;;;;12.47;7.87;;;;;;;17.94;69.03;99212.13;4842933;29;20413;-89
2021/08/22 05:16:21;;;;;;;15.00;7.87;;;;;;;17.94;68.69;99207.41;4841804;29;20087;-90
2021/08/22 05:18:47;;;;;;;16.10;7.33;;;;;;;18.14;68.60;99232.28;4843992;29;20038;-87
2021/08/22 05:21:12;;;;;;;16.97;7.80;;;;;;;18.10;69.15;99221.16;4843721;29;20038;-93
2021/08/22 05:23:38;;;;;;;16.92;8.45;;;;;;;18.09;68.92;99214.03;4842211;29;20045;-92
2021/08/22 05:26:06;;;;;;;15.45;7.72;;;;;;;18.18;68.63;99230.38;4842378;29;20465;-96
2021/08/22 05:28:32;;;;;;;20.33;8.03;;;;;;;18.15;68.45;99234.69;4842910;29;20042;-87
2021/08/22 05:30:58;;;;;;;12.07;7.43;;;;;;;18.08;68.58;99229.03;4843364;29;20569;-87
2021/08/22 05:33:24;;;;;;;18.90;8.57;;;;;;;18.14;68.80;99229.53;4835434;29;20140;-93
2021/08/22 05:35:51;;;;;;;16.80;8.18;;;;;;;18.57;67.71;99231.09;4823493;29;20045;-88
2021/08/22 05:38:17;;;;;;;29.17;8.50;;;;;;;18.72;68.40;99241.31;4839363;29;20046;-82
2021/08/22 05:40:43;;;;;;;17.47;7.77;;;;;;;19.23;66.09;99242.91;4842965;29;20045;-85
2021/08/22 05:43:08;;;;;;;12.17;7.67;;;;;;;19.22;65.32;99250.41;4843212;29;20389;-86
2021/08/22 05:45:35;;;;;;;;;;;;;;;19.61;65.54;99250.22;4842592;29;20042;-83
2021/08/22 05:48:01;;;;;;;24.05;8.70;;;;;;;19.42;64.63;99251.13;4847212;29;20202;-83
2021/08/22 05:50:28;;;;;;;18.55;7.65;;;;;;;19.57;65.00;99262.41;4843385;29;20099;-82
2021/08/22 05:52:54;;;;;;;18.70;7.50;;;;;;;19.63;64.33;99253.41;4843458;29;20148;-83
2021/08/22 05:55:20;;;;;;;22.35;7.68;;;;;;;19.55;64.80;99250.91;4844034;29;20456;-86
2021/08/22 05:57:46;;;;;;;21.70;7.17;;;;;;;19.40;65.30;99245.16;4851397;29;20054;-85
2021/08/22 06:00:12;;;;;;;11.97;5.40;;;;;;;19.49;64.44;99240.13;4846016;29;20042;-96
2021/08/22 06:02:39;;;;;;;11.15;6.00;;;;;;;19.51;63.73;99255.59;4854148;29;20045;-77
2021/08/22 06:05:07;;;;;;;13.90;6.03;;;;;;;19.46;64.03;99254.72;4843205;29;20049;-90
2021/08/22 06:07:33;;;;;;;13.00;4.43;;;;;;;19.81;63.02;99253.66;4842872;29;20038;-84
2021/08/22 06:10:00;;;;;;;13.70;4.50;;;;;;;19.69;63.69;99228.94;4825976;29;20061;-86
2021/08/22 06:12:26;;;;;;;25.20;5.03;;;;;;;19.51;63.91;99259.19;4842601;29;20069;-92
2021/08/22 06:14:54;;;;;;;6.60;4.07;;;;;;;19.60;63.33;99270.78;4842547;29;20042;-88
2021/08/22 06:17:21;;;;;;;13.43;3.70;;;;;;;19.52;64.31;99257.19;4842980;29;20046;-89
2021/08/22 06:19:47;;;;;;;10.27;4.20;;;;;;;19.82;62.42;99263.59;4853553;29;20053;-86
2021/08/22 06:22:13;;;;;;;7.97;3.63;;;;;;;19.86;62.19;99274.72;4828489;29;20136;-85
2021/08/22 06:24:39;;;;;;;10.83;3.63;;;;;;;20.29;61.59;99255.81;4846028;29;20049;-85
2021/08/22 06:27:05;;;;;;;7.27;3.50;;;;;;;20.40;60.77;99259.53;4847174;29;20085;-84
2021/08/22 06:29:31;;;;;;;16.87;4.33;;;;;;;20.07;60.27;99257.56;4845485;29;20052;-84
2021/08/22 06:31:56;;;;;;;5.03;3.73;;;;;;;20.34;61.05;99261.84;4853147;29;20559;-90
2021/08/22 06:34:22;;;;;;;6.77;3.03;;;;;;;20.42;60.57;99276.59;4860572;29;20049;-90
2021/08/22 06:36:48;;;;;;;12.70;3.60;;;;;;;20.15;60.43;99262.00;4847912;29;20077;-85
2021/08/22 06:39:15;;;;;;;;;;;;;;;20.44;60.65;99271.47;4840412;29;20088;-87
2021/08/22 06:41:41;;;;;;;5.68;3.38;;;;;;;20.39;59.83;99277.34;4840123;29;19928;-86
2021/08/22 06:44:07;;;;;;;6.10;3.20;;;;;;;20.05;60.86;99282.91;4841465;29;20044;-85
2021/08/22 06:46:34;;;;;;;11.13;3.60;;;;;;;19.84;61.48;99282.63;4841291;29;20145;-84
2021/08/22 06:49:01;;;;;;;17.50;3.40;;;;;;;19.72;61.77;99286.44;4846925;29;20049;-83
2021/08/22 06:51:28;;;;;;;8.37;3.37;;;;;;;19.79;61.56;99294.03;4856940;29;20055;-87
2021/08/22 06:53:55;;;;;;;6.22;3.25;;;;;;;19.73;61.70;99285.25;4860786;29;20037;-84
2021/08/22 06:56:21;;;;;;;8.45;3.78;;;;;;;19.87;62.23;99284.66;4861006;29;20048;-90
2021/08/22 06:58:49;;;;;;;4.97;3.15;;;;;;;19.91;61.78;99289.06;4848753;29;20054;-86
2021/08/22 07:01:16;;;;;;;9.13;3.20;;;;;;;19.59;62.26;99290.56;4841363;29;20105;-86
2021/08/22 07:03:42;;;;;;;15.25;3.55;;;;;;;19.38;63.15;99297.41;4841051;29;20516;-86
2021/08/22 07:06:08;;;;;;;7.63;3.27;;;;;;;19.25;62.63;99263.53;4840717;29;20045;-88
2021/08/22 07:08:36;;;;;;;5.80;3.40;;;;;;;19.46;63.22;99282.47;4841966;29;20049;-82
2021/08/22 07:11:02;;;;;;;12.93;3.30;;;;;;;19.86;60.99;99308.00;4847484;29;20050;-84
2021/08/22 07:13:33;;;;;;;11.63;3.47;;;;;;;19.90;61.42;99309.69;4852615;29;20048;-84
2021/08/22 07:15:59;;;;;;;8.13;3.22;;;;;;;19.55;61.42;99290.50;4856398;29;20029;-95
2021/08/22 07:18:25;;;;;;;4.38;3.10;;;;;;;19.37;60.84;99297.75;4849444;29;20567;-88
2021/08/22 07:20:51;;;;;;;8.30;3.20;;;;;;;19.09;62.32;99281.47;4830918;29;20037;-88
2021/08/22 07:23:19;;;;;;;4.32;2.70;;;;;;;19.13;61.50;99287.88;4831769;29;20052;-89
2021/08/22 07:25:45;;;;;;;;;;;;;;;19.17;62.46;99300.63;4849118;29;20066;-89
2021/08/22 07:28:12;;;;;;;6.22;2.67;;;;;;;19.00;62.23;99288.06;4852642;29;20345;-89
2021/08/22 07:30:39;;;;;;;7.57;2.63;;;;;;;18.82;60.82;99264.03;4848023;29;20030;-88
2021/08/22 07:33:06;;;;;;;6.90;2.75;;;;;;;18.81;61.37;99293.69;4845660;29;20045;-87
2021/08/22 07:35:31;;;;;;;12.93;2.30;;;;;;;18.64;62.27;99277.50;4847095;29;20097;-88
2021/08/22 07:37:58;;;;;;;8.30;2.70;;;;;;;18.85;62.28;99313.13;4866165;29;20042;-89
2021/08/22 07:40:25;;;;;;;4.13;2.70;;;;;;;18.84;61.74;99311.50;4851023;29;20058;-87
2021/08/22 07:42:53;;;;;;;10.20;3.30;;;;;;;18.61;61.82;99281.00;4852478;29;20013;-93
2021/08/22 07:45:19;;;;;;;7.50;2.77;;;;;;;18.99;61.42;99316.94;4838552;29;20168;-94
2021/08/22 07:47:46;;;;;;;7.95;2.92;;;;;;;19.10;61.15;99314.34;4849583;29;20053;-88
2021/08/22 07:50:12;;;;;;;7.17;2.70;;;;;;;19.40;60.31;99306.16;4838427;29;20076;-94
2021/08/22 07:52:39;;;;;;;5.47;2.60;;;;;;;19.44;58.15;99312.53;4851980;29;20508;-90
2021/08/22 07:55:05;;;;;;;4.55;2.40;;;;;;;19.23;59.84;99301.09;4862840;29;20050;-92
2021/08/22 07:57:32;;;;;;;6.40;2.50;;;;;;;19.25;59.52;99327.28;4855967;29;20065;-89
2021/08/22 07:59:59;;;;;;;6.28;2.50;;;;;;;18.96;59.65;99311.34;4868493;29;20041;-92
2021/08/22 08:02:25;;;;;;;10.63;2.67;;;;;;;18.90;58.89;99308.06;4842377;29;20046;-92
2021/08/22 08:04:51;;;;;;;4.87;2.50;;;;;;;19.14;59.60;99331.03;4845277;29;20073;-90
2021/08/22 08:07:18;;;;;;;3.97;2.40;;;;;;;19.30;58.99;99342.78;4849379;29;20046;-89
2021/08/22 08:09:45;;;;;;;26.27;2.72;;;;;;;19.33;58.86;99319.88;4859342;29;20134;-88
2021/08/22 08:12:11;;;;;;;6.80;2.30;;;;;;;19.59;57.89;99346.03;4851073;29;20049;-89
2021/08/22 08:14:37;;;;;;;4.63;2.33;;;;;;;19.53;56.55;99347.50;4860884;29;20041;-88
2021/08/22 08:17:04;;;;;;;4.27;2.20;;;;;;;19.53;56.97;99340.00;4863694;29;20097;-91
2021/08/22 08:19:31;;;;;;;5.90;2.58;;;;;;;19.59;57.90;99354.34;4851225;29;20070;-88
2021/08/22 08:21:57;;;;;;;5.97;2.20;;;;;;;19.32;56.61;99309.97;4852543;29;20081;-95
2021/08/22 08:24:23;;;;;;;10.30;2.72;;;;;;;19.41;55.22;99337.44;4817000;29;20086;-89
2021/08/22 08:26:49;;;;;;;4.23;2.40;;;;;;;19.42;55.80;99345.38;4866887;29;20478;-89
2021/08/22 08:29:15;;;;;;;10.03;2.63;;;;;;;19.62;55.97;99350.84;4856944;29;20045;-88
2021/08/22 08:31:41;;;;;;;;;;;;;;;19.86;53.85;99371.81;4861421;29;20056;-92
2021/08/22 08:34:11;;;;;;;9.95;2.38;;;;;;;19.81;53.21;99345.22;4861602;29;19955;-89
2021/08/22 08:36:37;;;;;;;13.07;2.78;;;;;;;19.91;53.57;99352.88;4845159;29;20009;-89
2021/08/22 08:39:06;;;;;;;8.88;2.53;;;;;;;20.09;53.76;99372.53;4856757;29;20053;-80
2021/08/22 08:41:32;;;;;;;15.43;2.83;;;;;;;20.05;52.08;99362.56;4856138;29;20427;-87
2021/08/22 08:43:58;;;;;;;5.27;2.40;;;;;;;20.04;53.22;99349.88;4844695;29;20116;-87
2021/08/22 08:46:26;;;;;;;8.68;2.30;;;;;;;20.25;53.41;99369.59;4840033;29;20101;-86
2021/08/22 08:49:24;;;;;;;4.05;2.15;;;;;;;20.10;51.08;99354.75;4841398;29;20125;-85
2021/08/22 08:52:02;;;;;;;5.03;2.20;;;;;;;20.04;53.02;99377.63;4842003;29;20058;-87
2021/08/22 08:54:44;;;;;;;12.90;2.58;;;;;;;19.98;52.99;99379.13;4841795;29;20049;-86
2021/08/22 08:57:14;;;;;;;19.52;2.67;;;;;;;19.98;51.98;99374.38;4828073;29;20058;-87
2021/08/22 08:59:43;;;;;;;14.65;2.92;;;;;;;19.92;53.10;99378.66;4842766;29;20046;-88
2021/08/22 09:02:09;;;;;;;6.60;2.53;;;;;;;19.77;53.89;99393.47;4844625;29;20037;-80
2021/08/22 09:04:53;;;;;;;14.80;2.75;;;;;;;;;;4843130;29;20045;-79
2021/08/22 09:07:35;;;;;;;13.38;2.92;;;;;;;19.60;54.35;99386.44;4844489;29;20045;-86
2021/08/22 09:10:44;;;;;;;7.55;2.60;;;;;;;19.64;54.07;99399.25;4848897;29;20057;-87
2021/08/22 09:13:58;;;;;;;13.43;2.80;;;;;;;19.62;54.44;99407.09;4839652;29;20337;-88
2021/08/22 09:17:01;;;;;;;9.52;2.35;;;;;;;19.65;53.92;99400.03;4830472;29;20053;-87
2021/08/22 09:19:33;;;;;;;3.63;2.33;;;;;;;19.83;55.47;99401.09;4844098;29;20048;-88
2021/08/22 09:22:33;;;;;;;7.07;2.72;;;;;;;19.63;52.68;99414.25;4826410;29;20102;-88
2021/08/22 09:25:35;;;;;;;4.50;2.47;;;;;;;19.67;52.53;99422.66;4828622;29;20496;-88
2021/08/22 09:28:26;;;;;;;21.45;3.20;;;;;;;19.84;52.75;99419.38;4855182;29;20098;-88
2021/08/22 09:31:19;;;;;;;10.73;2.50;;;;;;;19.79;53.18;99433.53;4832146;29;20069;-87
2021/08/22 09:34:25;;;;;;;4.82;2.10;;;;;;;20.07;52.09;99429.63;4827691;29;20052;-87
2021/08/22 09:37:25;;;;;;;5.82;2.53;;;;;;;19.92;50.86;99425.81;4849381;29;20145;-85
2021/08/22 09:40:29;;;;;;;5.60;2.03;;;;;;;19.93;51.39;99425.47;4854362;29;20064;-88
2021/08/22 09:43:33;;;;;;;12.60;2.20;;;;;;;19.82;51.15;99435.56;4836134;29;20041;-84
2021/08/22 09:46:36;;;;;;;8.93;2.30;;;;;;;19.89;51.28;99432.09;4829136;29;20050;-86
2021/08/22 09:49:42;;;;;;;5.20;2.58;;;;;;;20.12;53.56;99423.72;4848790;29;20499;-86
2021/08/22 09:52:27;;;;;;;6.75;2.20;;;;;;;20.31;50.59;99431.94;4843992;29;20167;-82
2021/08/22 09:55:15;;;;;;;10.50;2.25;;;;;;;20.64;50.50;99436.78;4845468;29;20076;-85
2021/08/22 09:58:02;;;;;;;5.80;2.22;;;;;;;20.54;50.75;99433.88;4852469;29;20534;-86
2021/08/22 10:01:16;;;;;;;6.22;2.55;;;;;;;20.41;51.93;99445.16;4825296;29;20045;-87
2021/08/22 10:04:10;;;;;;;5.40;2.85;;;;;;;20.06;52.02;99448.22;4823457;29;20058;-86
2021/08/22 10:06:55;;;;;;;5.90;2.55;;;;;;;20.64;52.76;99445.09;4841140;29;20046;-86
2021/08/22 10:09:23;;;;;;;5.35;2.38;;;;;;;21.40;50.12;99438.44;4842494;29;20427;-87
2021/08/22 10:11:56;;;;;;;10.73;7.60;;;;;;;21.23;48.52;99453.72;4841707;29;20069;-87
2021/08/22 10:14:25;;;;;;;9.35;3.17;;;;;;;20.84;48.00;99436.59;4842405;29;20457;-88
2021/08/22 10:16:52;;;;;;;3.90;2.72;;;;;;;20.63;48.40;99440.72;4843252;29;20044;-87
2021/08/22 10:19:24;;;;;;;8.60;2.60;;;;;;;20.53;48.14;99446.13;4838003;29;20046;-84
2021/08/22 10:22:13;;;;;;;5.00;2.50;;;;;;;20.77;49.08;99444.88;4849061;29;20102;-88
2021/08/22 10:24:43;;;;;;;13.35;2.80;;;;;;;20.81;49.21;99452.06;4847243;29;20076;-88
2021/08/22 10:27:11;;;;;;;6.80;3.85;;;;;;;20.83;48.53;99438.59;4826002;29;20049;-87
2021/08/22 10:29:49;;;;;;;15.13;3.15;;;;;;;20.97;48.69;99451.06;4823763;29;20037;-86
2021/08/22 10:32:19;;;;;;;12.75;3.72;;;;;;;21.02;48.73;99429.25;4830606;29;20053;-90
2021/08/22 10:34:48;;;;;;;7.15;2.55;;;;;;;21.30;47.35;99456.56;4855670;29;20070;-86
2021/08/22 10:37:33;;;;;;;12.75;2.72;;;;;;;21.38;47.40;99456.66;4846574;29;20054;-87
2021/08/22 10:40:25;;;;;;;5.60;2.40;;;;;;;21.26;47.18;99457.72;4839552;29;20512;-87
2021/08/22 10:42:57;;;;;;;12.73;2.70;;;;;;;21.10;47.21;99458.75;4839720;29;20054;-86
2021/08/22 10:45:50;;;;;;;11.38;2.45;;;;;;;21.06;47.85;99462.69;4844477;29;20511;-85
2021/08/22 10:48:22;;;;;;;8.75;2.92;;;;;;;20.84;47.58;99461.63;4829814;29;20436;-86
2021/08/22 10:51:08;;;;;;;11.02;2.78;;;;;;;20.91;47.75;99463.69;4844954;29;20052;-86
2021/08/22 10:53:36;;;;;;;13.50;2.47;;;;;;;21.00;48.23;99447.53;4854467;29;20050;-87
2021/08/22 10:56:23;;;;;;;7.25;2.50;;;;;;;21.04;46.30;99456.69;4841615;29;20050;-87
2021/08/22 10:58:56;;;;;;;7.93;2.60;;;;;;;21.14;45.98;99464.34;4843934;29;20083;-84
2021/08/22 11:01:27;;;;;;;6.40;2.40;;;;;;;21.29;45.44;99460.53;4856079;29;20512;-83
2021/08/22 11:04:08;;;;;;;7.68;2.38;;;;;;;21.63;44.91;99459.69;4850531;29;20037;-91
2021/08/22 11:06:56;;;;;;;7.72;2.70;;;;;;;21.88;44.65;99454.31;4841004;29;20147;-89
2021/08/22 11:09:45;;;;;;;22.35;3.00;;;;;;;22.10;44.36;99455.28;4850474;29;20042;-90
2021/08/22 11:12:29;;;;;;;8.18;2.70;;;;;;;21.87;43.49;99458.31;4845302;29;20129;-92
2021/08/22 11:14:58;;;;;;;16.15;3.00;;;;;;;21.52;45.15;99451.22;4823370;29;20512;-83
2021/08/22 11:17:25;;;;;;;19.40;3.35;;;;;;;21.47;45.11;99462.72;4834036;29;20118;-83
2021/08/22 11:20:06;;;;;;;7.22;2.60;;;;;;;21.42;44.37;99449.94;4840432;29;20037;-86
2021/08/22 11:22:32;;;;;;;13.98;3.13;;;;;;;21.28;44.12;99452.56;4845031;29;20187;-84
2021/08/22 11:24:59;;;;;;;13.87;3.13;;;;;;;21.04;44.92;99442.78;4862262;29;20107;-86
2021/08/22 11:27:27;;;;;;;7.28;2.72;;;;;;;21.31;44.61;99451.81;4860656;29;20891;-84
2021/08/22 11:29:53;;;;;;;11.32;2.80;;;;;;;21.20;44.93;99457.25;4855829;29;20045;-84
2021/08/22 11:32:22;;;;;;;28.17;4.80;;;;;;;21.11;45.46;99435.31;4841565;29;20049;-86
2021/08/22 11:34:49;;;;;;;12.73;3.00;;;;;;;21.40;45.02;99451.53;4842378;29;20053;-84
2021/08/22 11:37:19;;;;;;;14.80;3.13;;;;;;;21.33;43.80;99441.91;4859150;29;20049;-82
2021/08/22 11:39:45;;;;;;;36.63;4.63;;;;;;;21.70;43.41;99455.00;4857626;29;20061;-85
2021/08/22 11:42:19;;;;;;;8.95;3.17;;;;;;;21.81;42.98;99457.84;4841647;29;20046;-84
2021/08/22 11:44:45;;;;;;;6.95;2.60;;;;;;;21.91;43.27;99459.91;4841976;29;20427;-89
2021/08/22 11:47:11;;;;;;;42.60;5.63;;;;;;;21.64;43.32;99434.25;4847758;29;20052;-83
2021/08/22 11:49:37;;;;;;;26.73;5.03;;;;;;;21.72;43.85;99441.50;4853347;29;20411;-95
2021/08/22 11:52:04;;;;;;;13.38;2.90;;;;;;;21.97;43.29;99447.25;4848693;29;20049;-83
2021/08/22 11:54:34;;;;;;;23.73;4.90;;;;;;;22.03;43.79;99461.59;4842900;29;20062;-84
2021/08/22 11:57:18;;;;;;;46.40;5.18;;;;;;;22.28;43.46;99459.84;4845035;29;20049;-87
2021/08/22 11:59:57;;;;;;;11.15;4.10;;;;;;;22.51;44.25;99455.97;4847982;29;20046;-89
2021/08/22 12:02:25;;;;;;;9.95;4.57;;;;;;;22.86;42.39;99462.91;4846892;29;20046;-84
2021/08/22 12:05:14;;;;;;;15.18;2.58;;;;;;;23.15;40.24;99452.66;4848629;29;20456;-84
2021/08/22 12:07:46;;;;;;;17.67;3.00;;;;;;;23.39;40.12;99454.69;4831608;29;20504;-84
2021/08/22 12:10:27;;;;;;;5.95;2.63;;;;;;;23.40;38.70;99463.88;4851665;29;20056;-90
2021/08/22 12:12:57;;;;;;;4.60;2.42;;;;;;;23.38;39.17;99452.31;4848158;29;20080;-83
2021/08/22 12:15:32;;;;;;;11.25;2.97;;;;;;;23.31;39.84;99461.47;4849307;29;20053;-85
2021/08/22 12:18:26;;;;;;;12.50;2.85;;;;;;;22.68;40.56;99460.84;4851601;29;20042;-85
2021/08/22 12:21:03;;;;;;;7.68;2.50;;;;;;;22.12;42.00;99459.28;4847282;29;20075;-84
2021/08/22 12:23:36;;;;;;;;;;;;;;;22.25;42.71;99465.34;4846195;29;20468;-86
2021/08/22 12:26:20;;;;;;;23.35;3.67;;;;;;;21.89;41.36;99462.31;4860883;29;20354;-90
2021/08/22 12:28:48;;;;;;;13.65;3.00;;;;;;;21.74;41.42;99453.03;4861836;29;20056;-94
2021/08/22 12:31:16;;;;;;;14.00;3.13;;;;;;;22.25;42.19;99466.19;4863656;29;20050;-84
2021/08/22 12:33:44;;;;;;;11.07;2.67;;;;;;;22.24;42.00;99456.19;4857659;29;20041;-85
2021/08/22 12:36:13;;;;;;;20.35;4.22;;;;;;;22.04;42.35;99466.78;4852297;29;20053;-83
2021/08/22 12:38:54;;;;;;;14.93;3.75;;;;;;;21.95;43.11;99460.75;4846591;29;20045;-85
2021/08/22 12:41:26;;;;;;;17.00;3.72;;;;;;;21.88;41.96;99471.03;4845596;29;20492;-83
2021/08/22 12:43:55;;;;;;;30.30;4.35;;;;;;;22.11;43.66;99462.44;4844701;29;20065;-89
2021/08/22 12:46:22;;;;;;;17.05;3.22;;;;;;;22.42;40.45;99473.03;4849208;29;20056;-84
2021/08/22 12:48:48;;;;;;;17.75;3.30;;;;;;;22.49;40.40;99450.78;4864883;29;20042;-83
2021/08/22 12:51:14;;;;;;;11.57;2.42;;;;;;;22.77;38.75;99460.47;4867408;29;20045;-85
2021/08/22 12:53:40;;;;;;;12.25;3.63;;;;;;;22.83;39.31;99461.69;4869839;29;20542;-83
2021/08/22 12:56:06;;;;;;;20.50;3.95;;;;;;;22.68;39.37;99468.38;4849918;29;20057;-83
2021/08/22 12:58:33;;;;;;;13.43;3.88;;;;;;;22.56;39.31;99461.16;4846403;29;20062;-96
2021/08/22 13:00:59;;;;;;;8.90;3.10;;;;;;;22.60;39.92;99466.75;4846797;29;20139;-96
2021/08/22 13:03:25;;;;;;;8.85;2.97;;;;;;;22.67;39.01;99461.22;4846431;29;20050;-96
2021/08/22 13:05:51;;;;;;;6.40;3.40;;;;;;;22.75;38.57;99469.22;4847242;29;20102;-84
2021/08/22 13:08:17;;;;;;;11.85;2.63;;;;;;;22.76;41.77;99464.44;4860672;29;20073;-96
2021/08/22 13:10:43;;;;;;;15.00;3.00;;;;;;;22.67;39.29;99450.84;4867316;29;20052;-84
2021/08/22 13:13:09;;;;;;;9.52;2.95;;;;;;;22.63;40.47;99452.84;4870214;29;20029;-86
2021/08/22 13:15:37;;;;;;;6.45;3.30;;;;;;;22.53;40.14;99459.16;4864493;29;20045;-85
2021/08/22 13:18:04;;;;;;;8.52;2.53;;;;;;;22.43;40.18;99471.03;4868813;29;20404;-93
2021/08/22 13:20:29;;;;;;;14.67;3.00;;;;;;;22.13;38.88;99437.81;4866071;29;20046;-96
2021/08/22 13:22:57;;;;;;;45.60;6.05;;;;;;;22.31;40.43;99469.38;4848590;29;20042;-84
2021/08/22 13:25:24;;;;;;;37.70;6.07;;;;;;;22.34;41.15;99467.81;4850874;29;20097;-85
2021/08/22 13:27:50;;;;;;;;;;;;;;;22.28;41.08;99465.41;4870749;29;20139;-88
2021/08/22 13:30:16;;;;;;;16.52;5.28;;;;;;;22.17;39.58;99472.06;4857945;29;19932;-96
2021/08/22 13:32:42;;;;;;;22.98;4.65;;;;;;;22.21;40.16;99470.91;4844802;29;20053;-93
2021/08/22 13:35:08;;;;;;;13.57;3.37;;;;;;;22.31;40.02;99465.78;4849212;29;20050;-85
2021/08/22 13:37:34;;;;;;;11.38;3.13;;;;;;;22.65;39.38;99472.75;4847418;29;20057;-88
2021/08/22 13:40:00;;;;;;;9.20;3.27;;;;;;;22.90;39.61;99467.28;4848967;29;20066;-87
2021/08/22 13:42:26;;;;;;;5.32;2.92;;;;;;;22.88;39.84;99466.06;4853163;29;20056;-96
2021/08/22 13:44:53;;;;;;;7.88;2.30;;;;;;;22.74;39.07;99464.03;4849473;29;20038;-87
2021/08/22 13:47:21;;;;;;;13.82;4.72;;;;;;;22.61;39.35;99480.28;4847187;29;20038;-96
2021/08/22 13:49:47;;;;;;;6.72;2.53;;;;;;;22.48;39.00;99470.66;4847966;29;20129;-84
2021/08/22 13:52:13;;;;;;;10.03;2.90;;;;;;;22.31;40.36;99452.66;4845002;29;20431;-88
2021/08/22 13:54:39;;;;;;;49.78;5.10;;;;;;;22.42;39.54;99466.66;4842753;29;20046;-88
2021/08/22 13:57:05;;;;;;;16.38;3.75;;;;;;;22.50;40.07;99482.22;4842706;29;20061;-91
2021/08/22 13:59:31;;;;;;;7.25;2.80;;;;;;;22.42;41.21;99461.91;4826300;29;20053;-88
2021/08/22 14:01:58;;;;;;;11.98;2.60;;;;;;;22.54;38.59;99463.53;4846248;29;20101;-89
2021/08/22 14:04:27;;;;;;;24.70;3.23;;;;;;;22.44;38.18;99447.56;4875447;29;20416;-87
2021/08/22 14:06:54;;;;;;;12.88;2.92;;;;;;;22.45;38.68;99461.13;4860014;29;20624;-90
2021/08/22 14:09:20;;;;;;;5.67;2.73;;;;;;;22.55;38.05;99469.91;4859382;29;20124;-88
2021/08/22 14:11:46;;;;;;;5.95;2.40;;;;;;;22.56;39.73;99469.53;4839013;29;20415;-88
2021/08/22 14:14:13;;;;;;;8.00;2.70;;;;;;;22.37;38.17;99467.81;4860411;29;20048;-89
2021/08/22 14:16:39;;;;;;;8.45;2.60;;;;;;;22.22;39.03;99483.66;4855835;29;20511;-87
2021/08/22 14:19:07;;;;;;;6.20;1.93;;;;;;;22.03;39.38;99467.19;4843348;29;20077;-87
2021/08/22 14:21:35;;;;;;;7.63;3.78;;;;;;;21.96;39.68;99490.19;4870557;29;20329;-87
2021/08/22 14:24:01;;;;;;;16.83;3.75;;;;;;;21.83;40.65;99471.41;4843067;29;20049;-87
2021/08/22 14:26:28;;;;;;;13.55;2.83;;;;;;;21.95;39.92;99508.09;4854029;29;20041;-89
2021/08/22 14:28:54;;;;;;;7.15;2.50;;;;;;;21.78;42.27;99473.31;4869078;29;20069;-89
2021/08/22 14:31:23;;;;;;;10.32;2.65;;;;;;;21.79;40.66;99490.84;4842038;29;20041;-87
2021/08/22 14:33:49;;;;;;;11.35;2.65;;;;;;;21.92;40.27;99503.28;4830453;29;20088;-88
2021/08/22 14:36:16;;;;;;;8.38;2.88;;;;;;;21.96;41.51;99498.53;4834510;29;20077;-84
2021/08/22 14:38:42;;;;;;;7.67;2.63;;;;;;;22.00;41.63;99509.69;4842349;29;20782;-91
2021/08/22 14:41:08;;;;;;;4.73;2.67;;;;;;;21.86;41.94;99490.91;4843253;29;20307;-83
2021/08/22 14:43:34;;;;;;;12.93;2.97;;;;;;;21.89;43.33;99500.47;4842506;29;20944;-83
2021/08/22 14:46:00;;;;;;;20.35;3.50;;;;;;;21.85;41.62;99497.63;4837188;29;20542;-83